sensor_id;sensor_type;location;lat;lon;timestamp;pressure;altitude;pressure_sealevel;temperature;humidity
10470;BME280;5282;47.052;15.458;2024-02-23T00:01:10;95895.81;;;8.69;100.00
10470;BME280;5282;47.052;15.458;2024-02-23T00:03:38;95893.56;;;8.73;100.00
10470;BME280;5282;47.052;15.458;2024-02-23T00:06:05;95889.63;;;8.75;100.00
10470;BME280;5282;47.052;15.458;2024-02-23T00:08:34;95891.03;;;8.64;100.00
10470;BME280;5282;47.052;15.458;2024-02-23T00:11:01;95886.03;;;8.61;100.00
10470;BME280;5282;47.052;15.458;2024-02-23T00:13:28;95890.66;;;8.68;100.00
10470;BME280;5282;47.052;15.458;2024-02-23T00:15:56;95887.31;;;8.66;100.00
10470;BME280;5282;47.052;15.458;2024-02-23T00:18:24;95887.50;;;8.64;100.00
10470;BME280;5282;47.052;15.458;2024-02-23T00:20:51;95879.19;;;8.52;100.00
10470;BME280;5282;47.052;15.458;2024-02-23T00:23:18;95879.81;;;8.54;100.00
10470;BME280;5282;47.052;15.458;2024-02-23T00:25:45;95878.53;;;8.50;100.00
10470;BME280;5282;47.052;15.458;2024-02-23T00:28:13;95875.47;;;8.53;100.00
10470;BME280;5282;47.052;15.458;2024-02-23T00:30:40;95877.19;;;8.61;100.00
10470;BME280;5282;47.052;15.458;2024-02-23T00:33:08;95880.53;;;8.70;100.00
10470;BME280;5282;47.052;15.458;2024-02-23T00:35:35;95879.38;;;8.51;100.00
10470;BME280;5282;47.052;15.458;2024-02-23T00:38:02;95878.88;;;8.47;100.00
10470;BME280;5282;47.052;15.458;2024-02-23T00:40:29;95883.00;;;8.43;100.00
10470;BME280;5282;47.052;15.458;2024-02-23T00:42:56;95875.59;;;8.45;100.00
10470;BME280;5282;47.052;15.458;2024-02-23T00:45:25;95883.00;;;8.43;100.00
10470;BME280;5282;47.052;15.458;2024-02-23T00:47:52;95883.19;;;8.41;100.00
10470;BME280;5282;47.052;15.458;2024-02-23T00:50:20;95888.91;;;8.31;100.00
10470;BME280;5282;47.052;15.458;2024-02-23T00:52:49;95891.75;;;8.30;100.00
10470;BME280;5282;47.052;15.458;2024-02-23T00:55:16;95882.09;;;8.36;100.00
10470;BME280;5282;47.052;15.458;2024-02-23T00:57:43;95881.97;;;8.44;100.00
10470;BME280;5282;47.052;15.458;2024-02-23T01:00:12;95890.56;;;8.32;100.00
10470;BME280;5282;47.052;15.458;2024-02-23T01:02:40;95897.13;;;8.30;100.00
10470;BME280;5282;47.052;15.458;2024-02-23T01:05:07;95892.97;;;8.27;100.00
10470;BME280;5282;47.052;15.458;2024-02-23T01:07:36;95894.31;;;8.38;100.00
10470;BME280;5282;47.052;15.458;2024-02-23T01:10:04;95894.84;;;8.48;100.00
10470;BME280;5282;47.052;15.458;2024-02-23T01:12:31;95895.47;;;8.51;100.00
10470;BME280;5282;47.052;15.458;2024-02-23T01:14:58;95888.88;;;8.53;100.00
10470;BME280;5282;47.052;15.458;2024-02-23T01:17:25;95895.56;;;8.42;100.00
10470;BME280;5282;47.052;15.458;2024-02-23T01:19:52;95893.31;;;8.46;100.00
10470;BME280;5282;47.052;15.458;2024-02-23T01:22:19;95899.78;;;8.52;100.00
10470;BME280;5282;47.052;15.458;2024-02-23T01:24:47;95899.72;;;8.45;100.00
10470;BME280;5282;47.052;15.458;2024-02-23T01:27:14;95896.28;;;8.29;100.00
10470;BME280;5282;47.052;15.458;2024-02-23T01:29:40;95903.19;;;8.17;100.00
10470;BME280;5282;47.052;15.458;2024-02-23T01:32:07;95906.84;;;8.09;100.00
10470;BME280;5282;47.052;15.458;2024-02-23T01:34:35;95899.06;;;8.14;100.00
10470;BME280;5282;47.052;15.458;2024-02-23T01:37:02;95904.91;;;8.25;100.00
10470;BME280;5282;47.052;15.458;2024-02-23T01:39:29;95902.31;;;8.31;100.00
10470;BME280;5282;47.052;15.458;2024-02-23T01:41:58;95907.09;;;8.14;100.00
10470;BME280;5282;47.052;15.458;2024-02-23T01:44:25;95906.69;;;8.17;100.00
10470;BME280;5282;47.052;15.458;2024-02-23T01:46:52;95906.19;;;8.29;100.00
10470;BME280;5282;47.052;15.458;2024-02-23T01:49:20;95901.66;;;8.29;100.00
10470;BME280;5282;47.052;15.458;2024-02-23T01:51:47;95909.50;;;8.31;100.00
10470;BME280;5282;47.052;15.458;2024-02-23T01:54:15;95912.00;;;8.32;100.00
10470;BME280;5282;47.052;15.458;2024-02-23T01:56:42;95895.13;;;8.39;100.00
10470;BME280;5282;47.052;15.458;2024-02-23T01:59:10;95894.91;;;8.33;100.00
10470;BME280;5282;47.052;15.458;2024-02-23T02:01:39;95899.19;;;8.28;100.00
10470;BME280;5282;47.052;15.458;2024-02-23T02:04:05;95905.25;;;8.15;100.00
10470;BME280;5282;47.052;15.458;2024-02-23T02:06:32;95903.50;;;8.07;100.00
10470;BME280;5282;47.052;15.458;2024-02-23T02:08:59;95904.16;;;7.87;100.00
10470;BME280;5282;47.052;15.458;2024-02-23T02:11:27;95905.06;;;7.58;100.00
10470;BME280;5282;47.052;15.458;2024-02-23T02:13:53;95903.09;;;7.45;100.00
10470;BME280;5282;47.052;15.458;2024-02-23T02:16:22;95905.00;;;7.51;100.00
10470;BME280;5282;47.052;15.458;2024-02-23T02:18:48;95902.19;;;7.60;100.00
10470;BME280;5282;47.052;15.458;2024-02-23T02:21:15;95901.75;;;7.56;100.00
10470;BME280;5282;47.052;15.458;2024-02-23T02:23:42;95902.50;;;7.50;100.00
10470;BME280;5282;47.052;15.458;2024-02-23T02:26:09;95895.91;;;7.67;100.00
10470;BME280;5282;47.052;15.458;2024-02-23T02:28:36;95894.81;;;7.62;100.00
10470;BME280;5282;47.052;15.458;2024-02-23T02:31:03;95896.13;;;7.51;100.00
10470;BME280;5282;47.052;15.458;2024-02-23T02:33:31;95893.84;;;7.48;100.00
10470;BME280;5282;47.052;15.458;2024-02-23T02:35:59;95890.22;;;7.55;100.00
10470;BME280;5282;47.052;15.458;2024-02-23T02:38:26;95894.47;;;7.50;100.00
10470;BME280;5282;47.052;15.458;2024-02-23T02:40:53;95888.84;;;7.45;100.00
10470;BME280;5282;47.052;15.458;2024-02-23T02:43:20;95897.66;;;7.38;100.00
10470;BME280;5282;47.052;15.458;2024-02-23T02:45:47;95901.59;;;7.43;100.00
10470;BME280;5282;47.052;15.458;2024-02-23T02:48:14;95899.31;;;7.39;100.00
10470;BME280;5282;47.052;15.458;2024-02-23T02:50:42;95892.84;;;7.34;100.00
10470;BME280;5282;47.052;15.458;2024-02-23T02:53:10;95896.81;;;7.23;100.00
10470;BME280;5282;47.052;15.458;2024-02-23T02:55:37;95896.28;;;7.13;100.00
10470;BME280;5282;47.052;15.458;2024-02-23T02:58:04;95891.22;;;7.18;100.00
10470;BME280;5282;47.052;15.458;2024-02-23T03:00:30;95891.03;;;7.19;100.00
10470;BME280;5282;47.052;15.458;2024-02-23T03:02:57;95896.75;;;7.16;100.00
10470;BME280;5282;47.052;15.458;2024-02-23T03:05:24;95905.34;;;7.12;100.00
10470;BME280;5282;47.052;15.458;2024-02-23T03:07:53;95903.31;;;7.14;100.00
10470;BME280;5282;47.052;15.458;2024-02-23T03:10:20;95904.31;;;7.13;100.00
10470;BME280;5282;47.052;15.458;2024-02-23T03:12:47;95914.28;;;7.19;100.00
10470;BME280;5282;47.052;15.458;2024-02-23T03:15:15;95903.50;;;7.12;100.00
10470;BME280;5282;47.052;15.458;2024-02-23T03:17:42;95906.34;;;7.10;100.00
10470;BME280;5282;47.052;15.458;2024-02-23T03:20:10;95895.16;;;7.22;100.00
10470;BME280;5282;47.052;15.458;2024-02-23T03:22:48;95898.22;;;7.34;100.00
10470;BME280;5282;47.052;15.458;2024-02-23T03:25:21;95902.06;;;7.31;100.00
10470;BME280;5282;47.052;15.458;2024-02-23T03:27:50;95895.13;;;7.37;100.00
10470;BME280;5282;47.052;15.458;2024-02-23T03:30:17;95896.91;;;7.30;100.00
10470;BME280;5282;47.052;15.458;2024-02-23T03:32:46;95893.41;;;7.29;100.00
10470;BME280;5282;47.052;15.458;2024-02-23T03:35:13;95896.66;;;7.24;100.00
10470;BME280;5282;47.052;15.458;2024-02-23T03:37:41;95897.09;;;7.28;100.00
10470;BME280;5282;47.052;15.458;2024-02-23T03:40:09;95895.25;;;7.29;100.00
10470;BME280;5282;47.052;15.458;2024-02-23T03:42:38;95900.03;;;7.33;100.00
10470;BME280;5282;47.052;15.458;2024-02-23T03:45:05;95899.00;;;7.49;100.00
10470;BME280;5282;47.052;15.458;2024-02-23T03:47:32;95901.59;;;7.43;100.00
10470;BME280;5282;47.052;15.458;2024-02-23T03:50:00;95896.72;;;7.46;100.00
10470;BME280;5282;47.052;15.458;2024-02-23T03:52:27;95915.72;;;7.51;100.00
10470;BME280;5282;47.052;15.458;2024-02-23T03:54:53;95913.44;;;7.33;100.00
10470;BME280;5282;47.052;15.458;2024-02-23T03:57:20;95923.41;;;7.09;100.00
10470;BME280;5282;47.052;15.458;2024-02-23T03:59:55;95927.09;;;7.08;100.00
10470;BME280;5282;47.052;15.458;2024-02-23T04:02:22;95928.16;;;7.07;100.00
10470;BME280;5282;47.052;15.458;2024-02-23T04:04:51;95930.34;;;7.04;100.00
10470;BME280;5282;47.052;15.458;2024-02-23T04:07:29;95926.75;;;7.12;100.00
10470;BME280;5282;47.052;15.458;2024-02-23T04:10:08;95931.53;;;7.01;100.00
10470;BME280;5282;47.052;15.458;2024-02-23T04:12:37;95938.09;;;6.99;100.00
10470;BME280;5282;47.052;15.458;2024-02-23T04:15:10;95937.81;;;7.08;100.00
10470;BME280;5282;47.052;15.458;2024-02-23T04:17:43;95938.00;;;7.07;100.00
10470;BME280;5282;47.052;15.458;2024-02-23T04:20:11;95940.69;;;7.07;100.00
10470;BME280;5282;47.052;15.458;2024-02-23T04:22:39;95942.53;;;7.06;100.00
10470;BME280;5282;47.052;15.458;2024-02-23T04:25:12;95944.47;;;7.13;100.00
10470;BME280;5282;47.052;15.458;2024-02-23T04:27:39;95946.41;;;7.19;100.00
10470;BME280;5282;47.052;15.458;2024-02-23T04:30:08;95951.47;;;7.14;100.00
10470;BME280;5282;47.052;15.458;2024-02-23T04:32:38;95945.03;;;7.08;100.00
10470;BME280;5282;47.052;15.458;2024-02-23T04:35:07;95948.34;;;6.95;100.00
10470;BME280;5282;47.052;15.458;2024-02-23T04:37:35;95953.84;;;6.78;100.00
10470;BME280;5282;47.052;15.458;2024-02-23T04:40:03;95959.22;;;6.93;100.00
10470;BME280;5282;47.052;15.458;2024-02-23T04:42:33;95951.66;;;6.97;100.00
10470;BME280;5282;47.052;15.458;2024-02-23T04:45:00;95956.81;;;6.84;100.00
10470;BME280;5282;47.052;15.458;2024-02-23T04:47:27;95954.31;;;6.67;100.00
10470;BME280;5282;47.052;15.458;2024-02-23T04:49:55;95959.28;;;6.70;100.00
10470;BME280;5282;47.052;15.458;2024-02-23T04:52:23;95970.00;;;6.70;100.00
10470;BME280;5282;47.052;15.458;2024-02-23T04:54:51;95983.59;;;6.84;100.00
10470;BME280;5282;47.052;15.458;2024-02-23T04:57:20;95980.34;;;6.88;100.00
10470;BME280;5282;47.052;15.458;2024-02-23T04:59:48;95975.34;;;6.85;100.00
10470;BME280;5282;47.052;15.458;2024-02-23T05:02:15;95979.69;;;6.71;100.00
10470;BME280;5282;47.052;15.458;2024-02-23T05:04:42;95988.25;;;6.67;100.00
10470;BME280;5282;47.052;15.458;2024-02-23T05:07:10;95987.41;;;6.66;100.00
10470;BME280;5282;47.052;15.458;2024-02-23T05:09:37;95981.13;;;6.59;100.00
10470;BME280;5282;47.052;15.458;2024-02-23T05:12:07;95992.53;;;6.53;100.00
10470;BME280;5282;47.052;15.458;2024-02-23T05:14:34;95991.16;;;6.57;100.00
10470;BME280;5282;47.052;15.458;2024-02-23T05:17:01;95986.63;;;6.57;100.00
10470;BME280;5282;47.052;15.458;2024-02-23T05:19:29;95990.72;;;6.68;100.00
10470;BME280;5282;47.052;15.458;2024-02-23T05:21:55;95982.72;;;6.68;100.00
10470;BME280;5282;47.052;15.458;2024-02-23T05:24:24;95985.81;;;6.57;100.00
10470;BME280;5282;47.052;15.458;2024-02-23T05:26:51;95987.44;;;6.43;100.00
10470;BME280;5282;47.052;15.458;2024-02-23T05:29:18;95998.72;;;6.30;100.00
10470;BME280;5282;47.052;15.458;2024-02-23T05:31:50;95994.38;;;6.29;100.00
10470;BME280;5282;47.052;15.458;2024-02-23T05:34:18;95987.00;;;6.31;100.00
10470;BME280;5282;47.052;15.458;2024-02-23T05:36:46;95983.75;;;6.21;100.00
10470;BME280;5282;47.052;15.458;2024-02-23T05:39:17;95993.84;;;6.10;100.00
10470;BME280;5282;47.052;15.458;2024-02-23T05:41:45;95989.94;;;6.21;100.00
10470;BME280;5282;47.052;15.458;2024-02-23T05:44:12;95984.28;;;6.16;100.00
10470;BME280;5282;47.052;15.458;2024-02-23T05:46:42;95981.63;;;6.16;100.00
10470;BME280;5282;47.052;15.458;2024-02-23T05:49:09;95981.44;;;6.17;100.00
10470;BME280;5282;47.052;15.458;2024-02-23T05:51:36;95981.31;;;6.11;100.00
10470;BME280;5282;47.052;15.458;2024-02-23T05:54:03;95989.06;;;5.97;100.00
10470;BME280;5282;47.052;15.458;2024-02-23T05:56:30;95990.88;;;6.05;100.00
10470;BME280;5282;47.052;15.458;2024-02-23T05:58:58;95975.72;;;6.21;100.00
10470;BME280;5282;47.052;15.458;2024-02-23T06:01:25;95979.16;;;6.06;100.00
10470;BME280;5282;47.052;15.458;2024-02-23T06:03:52;95978.88;;;6.01;100.00
10470;BME280;5282;47.052;15.458;2024-02-23T06:06:20;95980.31;;;6.12;100.00
10470;BME280;5282;47.052;15.458;2024-02-23T06:08:47;95977.06;;;6.25;100.00
10470;BME280;5282;47.052;15.458;2024-02-23T06:11:15;95984.69;;;6.05;100.00
10470;BME280;5282;47.052;15.458;2024-02-23T06:13:42;95998.25;;;6.03;100.00
10470;BME280;5282;47.052;15.458;2024-02-23T06:16:11;95996.13;;;6.22;100.00
10470;BME280;5282;47.052;15.458;2024-02-23T06:18:39;95997.19;;;6.12;100.00
10470;BME280;5282;47.052;15.458;2024-02-23T06:21:13;96000.13;;;6.17;100.00
10470;BME280;5282;47.052;15.458;2024-02-23T06:23:42;96002.16;;;6.15;100.00
10470;BME280;5282;47.052;15.458;2024-02-23T06:26:09;96002.16;;;6.15;100.00
10470;BME280;5282;47.052;15.458;2024-02-23T06:28:36;96010.53;;;6.12;100.00
10470;BME280;5282;47.052;15.458;2024-02-23T06:31:04;96013.56;;;6.09;100.00
10470;BME280;5282;47.052;15.458;2024-02-23T06:33:34;96011.41;;;6.05;100.00
10470;BME280;5282;47.052;15.458;2024-02-23T06:36:01;96006.13;;;5.88;100.00
10470;BME280;5282;47.052;15.458;2024-02-23T06:38:28;96008.13;;;5.94;100.00
10470;BME280;5282;47.052;15.458;2024-02-23T06:40:55;96007.78;;;5.97;100.00
10470;BME280;5282;47.052;15.458;2024-02-23T06:43:23;96007.22;;;6.10;100.00
10470;BME280;5282;47.052;15.458;2024-02-23T06:45:49;96011.56;;;6.11;100.00
10470;BME280;5282;47.052;15.458;2024-02-23T06:48:17;96022.72;;;6.15;100.00
10470;BME280;5282;47.052;15.458;2024-02-23T06:50:45;96018.19;;;6.15;100.00
10470;BME280;5282;47.052;15.458;2024-02-23T06:53:12;96007.47;;;6.24;100.00
10470;BME280;5282;47.052;15.458;2024-02-23T06:55:39;96006.03;;;6.36;100.00
10470;BME280;5282;47.052;15.458;2024-02-23T06:58:07;96008.19;;;6.41;100.00
10470;BME280;5282;47.052;15.458;2024-02-23T07:00:36;96006.47;;;6.25;100.00
10470;BME280;5282;47.052;15.458;2024-02-23T07:03:03;96019.34;;;6.21;100.00
10470;BME280;5282;47.052;15.458;2024-02-23T07:05:30;96014.81;;;6.22;100.00
10470;BME280;5282;47.052;15.458;2024-02-23T07:07:58;96016.97;;;6.26;100.00
10470;BME280;5282;47.052;15.458;2024-02-23T07:10:26;96028.78;;;6.32;100.00
10470;BME280;5282;47.052;15.458;2024-02-23T07:12:53;96024.50;;;6.46;100.00
10470;BME280;5282;47.052;15.458;2024-02-23T07:15:21;96026.75;;;6.34;100.00
10470;BME280;5282;47.052;15.458;2024-02-23T07:17:50;96018.94;;;6.32;100.00
10470;BME280;5282;47.052;15.458;2024-02-23T07:20:17;96014.41;;;6.33;100.00
10470;BME280;5282;47.052;15.458;2024-02-23T07:22:44;96031.88;;;6.44;100.00
10470;BME280;5282;47.052;15.458;2024-02-23T07:25:15;96027.13;;;6.54;100.00
10470;BME280;5282;47.052;15.458;2024-02-23T07:27:42;96029.69;;;6.47;100.00
10470;BME280;5282;47.052;15.458;2024-02-23T07:30:10;96028.59;;;6.57;100.00
10470;BME280;5282;47.052;15.458;2024-02-23T07:32:37;96033.88;;;6.65;100.00
10470;BME280;5282;47.052;15.458;2024-02-23T07:35:04;96034.22;;;6.62;100.00
10470;BME280;5282;47.052;15.458;2024-02-23T07:37:32;96042.25;;;6.62;100.00
10470;BME280;5282;47.052;15.458;2024-02-23T07:39:59;96036.84;;;6.70;100.00
10470;BME280;5282;47.052;15.458;2024-02-23T07:42:27;96041.59;;;6.83;100.00
10470;BME280;5282;47.052;15.458;2024-02-23T07:44:54;96040.69;;;6.91;100.00
10470;BME280;5282;47.052;15.458;2024-02-23T07:47:21;96052.88;;;6.93;100.00
10470;BME280;5282;47.052;15.458;2024-02-23T07:49:48;96046.59;;;6.86;100.00
10470;BME280;5282;47.052;15.458;2024-02-23T07:52:16;96047.41;;;6.87;100.00
10470;BME280;5282;47.052;15.458;2024-02-23T07:54:43;96038.94;;;6.98;100.00
10470;BME280;5282;47.052;15.458;2024-02-23T07:57:10;96029.19;;;7.05;100.00
10470;BME280;5282;47.052;15.458;2024-02-23T07:59:40;96036.03;;;7.23;100.00
10470;BME280;5282;47.052;15.458;2024-02-23T08:02:07;96054.13;;;7.21;100.00
10470;BME280;5282;47.052;15.458;2024-02-23T08:04:34;96043.25;;;7.22;100.00
10470;BME280;5282;47.052;15.458;2024-02-23T08:07:01;96040.28;;;7.32;100.00
10470;BME280;5282;47.052;15.458;2024-02-23T08:09:28;96056.25;;;7.25;100.00
10470;BME280;5282;47.052;15.458;2024-02-23T08:11:55;96070.00;;;7.22;100.00
10470;BME280;5282;47.052;15.458;2024-02-23T08:14:23;96057.44;;;7.23;100.00
10470;BME280;5282;47.052;15.458;2024-02-23T08:16:51;96050.97;;;7.32;100.00
10470;BME280;5282;47.052;15.458;2024-02-23T08:19:18;96052.03;;;7.46;100.00
10470;BME280;5282;47.052;15.458;2024-02-23T08:21:45;96063.56;;;7.47;100.00
10470;BME280;5282;47.052;15.458;2024-02-23T08:24:12;96060.22;;;7.45;100.00
10470;BME280;5282;47.052;15.458;2024-02-23T08:26:39;96062.09;;;7.44;100.00
10470;BME280;5282;47.052;15.458;2024-02-23T08:29:06;96061.53;;;7.49;100.00
10470;BME280;5282;47.052;15.458;2024-02-23T08:31:35;96061.25;;;7.44;100.00
10470;BME280;5282;47.052;15.458;2024-02-23T08:34:04;96058.91;;;7.25;100.00
10470;BME280;5282;47.052;15.458;2024-02-23T08:36:30;96044.34;;;7.28;100.00
10470;BME280;5282;47.052;15.458;2024-02-23T08:38:57;96060.97;;;7.23;100.00
10470;BME280;5282;47.052;15.458;2024-02-23T08:41:24;96057.53;;;7.30;100.00
10470;BME280;5282;47.052;15.458;2024-02-23T08:43:51;96057.19;;;7.33;100.00
10470;BME280;5282;47.052;15.458;2024-02-23T08:46:18;96047.69;;;7.30;100.00
10470;BME280;5282;47.052;15.458;2024-02-23T08:48:45;96046.03;;;7.29;100.00
10470;BME280;5282;47.052;15.458;2024-02-23T08:51:13;96043.97;;;7.31;100.00
10470;BME280;5282;47.052;15.458;2024-02-23T08:53:40;96030.97;;;7.28;100.00
10470;BME280;5282;47.052;15.458;2024-02-23T08:56:07;96040.75;;;7.36;100.00
10470;BME280;5282;47.052;15.458;2024-02-23T08:58:35;96036.22;;;7.36;100.00
10470;BME280;5282;47.052;15.458;2024-02-23T09:01:02;96048.59;;;7.37;100.00
10470;BME280;5282;47.052;15.458;2024-02-23T09:03:29;96043.25;;;7.37;100.00
10470;BME280;5282;47.052;15.458;2024-02-23T09:05:57;96052.84;;;7.47;100.00
10470;BME280;5282;47.052;15.458;2024-02-23T09:08:25;96052.50;;;7.50;100.00
10470;BME280;5282;47.052;15.458;2024-02-23T09:10:52;96051.47;;;7.51;100.00
10470;BME280;5282;47.052;15.458;2024-02-23T09:13:19;96041.13;;;7.48;100.00
10470;BME280;5282;47.052;15.458;2024-02-23T09:15:45;96052.94;;;7.53;100.00
10470;BME280;5282;47.052;15.458;2024-02-23T09:18:12;96060.88;;;7.47;100.00
10470;BME280;5282;47.052;15.458;2024-02-23T09:20:40;96051.63;;;7.49;100.00
10470;BME280;5282;47.052;15.458;2024-02-23T09:23:06;96042.13;;;7.47;100.00
10470;BME280;5282;47.052;15.458;2024-02-23T09:25:35;96043.44;;;7.51;100.00
10470;BME280;5282;47.052;15.458;2024-02-23T09:28:02;96040.28;;;7.62;100.00
10470;BME280;5282;47.052;15.458;2024-02-23T09:30:28;96045.66;;;7.62;100.00
10470;BME280;5282;47.052;15.458;2024-02-23T09:32:55;96053.84;;;7.61;100.00
10470;BME280;5282;47.052;15.458;2024-02-23T09:35:23;96050.00;;;7.63;100.00
10470;BME280;5282;47.052;15.458;2024-02-23T09:37:50;96064.50;;;7.69;100.00
10470;BME280;5282;47.052;15.458;2024-02-23T09:40:17;96057.28;;;7.69;100.00
10470;BME280;5282;47.052;15.458;2024-02-23T09:42:50;96051.19;;;7.76;100.00
10470;BME280;5282;47.052;15.458;2024-02-23T09:45:18;96047.00;;;7.73;100.00
10470;BME280;5282;47.052;15.458;2024-02-23T09:47:47;96048.88;;;7.72;100.00
10470;BME280;5282;47.052;15.458;2024-02-23T09:50:15;96052.22;;;7.75;100.00
10470;BME280;5282;47.052;15.458;2024-02-23T09:52:42;96066.16;;;7.70;100.00
10470;BME280;5282;47.052;15.458;2024-02-23T09:55:09;96061.91;;;7.76;100.00
10470;BME280;5282;47.052;15.458;2024-02-23T09:57:36;96053.66;;;7.92;100.00
10470;BME280;5282;47.052;15.458;2024-02-23T10:00:06;96047.81;;;8.03;100.00
10470;BME280;5282;47.052;15.458;2024-02-23T10:02:35;96053.53;;;8.00;100.00
10470;BME280;5282;47.052;15.458;2024-02-23T10:05:03;96049.31;;;7.91;100.00
10470;BME280;5282;47.052;15.458;2024-02-23T10:07:30;96053.47;;;7.94;100.00
10470;BME280;5282;47.052;15.458;2024-02-23T10:09:58;96046.16;;;8.02;100.00
10470;BME280;5282;47.052;15.458;2024-02-23T10:12:25;96052.34;;;7.88;100.00
10470;BME280;5282;47.052;15.458;2024-02-23T10:14:52;96045.59;;;7.92;100.00
10470;BME280;5282;47.052;15.458;2024-02-23T10:17:22;96044.53;;;7.71;100.00
10470;BME280;5282;47.052;15.458;2024-02-23T10:19:49;96050.44;;;7.67;100.00
10470;BME280;5282;47.052;15.458;2024-02-23T10:22:16;96052.47;;;7.80;100.00
10470;BME280;5282;47.052;15.458;2024-02-23T10:24:43;96055.44;;;7.70;100.00
10470;BME280;5282;47.052;15.458;2024-02-23T10:27:10;96059.84;;;7.78;100.00
10470;BME280;5282;47.052;15.458;2024-02-23T10:29:37;96054.00;;;7.89;100.00
10470;BME280;5282;47.052;15.458;2024-02-23T10:32:05;96045.72;;;7.84;100.00
10470;BME280;5282;47.052;15.458;2024-02-23T10:34:36;96050.72;;;7.87;100.00
10470;BME280;5282;47.052;15.458;2024-02-23T10:37:06;96051.81;;;7.78;100.00
10470;BME280;5282;47.052;15.458;2024-02-23T10:39:36;96042.31;;;7.75;100.00
10470;BME280;5282;47.052;15.458;2024-02-23T10:42:08;96027.56;;;7.64;100.00
10470;BME280;5282;47.052;15.458;2024-02-23T10:44:37;96031.59;;;7.60;100.00
10470;BME280;5282;47.052;15.458;2024-02-23T10:47:04;96033.28;;;7.61;100.00
10470;BME280;5282;47.052;15.458;2024-02-23T10:49:32;96032.34;;;7.69;100.00
10470;BME280;5282;47.052;15.458;2024-02-23T10:52:01;96024.94;;;7.56;100.00
10470;BME280;5282;47.052;15.458;2024-02-23T10:54:31;96022.72;;;7.60;100.00
10470;BME280;5282;47.052;15.458;2024-02-23T10:56:58;96015.72;;;7.74;100.00
10470;BME280;5282;47.052;15.458;2024-02-23T10:59:26;96017.94;;;7.70;100.00
10470;BME280;5282;47.052;15.458;2024-02-23T11:01:54;96017.75;;;7.71;100.00
10470;BME280;5282;47.052;15.458;2024-02-23T11:04:25;96017.00;;;7.63;100.00
10470;BME280;5282;47.052;15.458;2024-02-23T11:06:54;96021.53;;;7.77;100.00
10470;BME280;5282;47.052;15.458;2024-02-23T11:09:23;96019.78;;;7.69;100.00
10470;BME280;5282;47.052;15.458;2024-02-23T11:11:52;96023.00;;;7.80;100.00
10470;BME280;5282;47.052;15.458;2024-02-23T11:14:29;96010.03;;;7.83;100.00
10470;BME280;5282;47.052;15.458;2024-02-23T11:16:56;96007.47;;;7.75;100.00
10470;BME280;5282;47.052;15.458;2024-02-23T11:19:32;96008.94;;;7.93;100.00
10470;BME280;5282;47.052;15.458;2024-02-23T11:21:59;96008.09;;;7.92;100.00
10470;BME280;5282;47.052;15.458;2024-02-23T11:24:28;96009.09;;;7.91;100.00
10470;BME280;5282;47.052;15.458;2024-02-23T11:26:59;95997.13;;;7.87;100.00
10470;BME280;5282;47.052;15.458;2024-02-23T11:29:33;95991.56;;;7.88;100.00
10470;BME280;5282;47.052;15.458;2024-02-23T11:32:02;95994.13;;;7.97;100.00
10470;BME280;5282;47.052;15.458;2024-02-23T11:34:30;95996.00;;;8.18;100.00
10470;BME280;5282;47.052;15.458;2024-02-23T11:36:57;95990.38;;;8.34;100.00
10470;BME280;5282;47.052;15.458;2024-02-23T11:39:26;95982.16;;;8.36;100.00
10470;BME280;5282;47.052;15.458;2024-02-23T11:41:54;95974.56;;;8.40;100.00
10470;BME280;5282;47.052;15.458;2024-02-23T11:44:22;95977.25;;;8.40;100.00
10470;BME280;5282;47.052;15.458;2024-02-23T11:46:48;95975.38;;;8.40;100.00
10470;BME280;5282;47.052;15.458;2024-02-23T11:49:15;95979.00;;;8.47;100.00
10470;BME280;5282;47.052;15.458;2024-02-23T11:51:42;95980.97;;;8.60;100.00
10470;BME280;5282;47.052;15.458;2024-02-23T11:54:10;95975.84;;;8.66;100.00
10470;BME280;5282;47.052;15.458;2024-02-23T11:56:40;95975.38;;;8.55;100.00
10470;BME280;5282;47.052;15.458;2024-02-23T11:59:07;95975.91;;;8.72;100.00
10470;BME280;5282;47.052;15.458;2024-02-23T12:01:34;95975.56;;;8.82;100.00
10470;BME280;5282;47.052;15.458;2024-02-23T12:04:01;95963.81;;;8.83;100.00
10470;BME280;5282;47.052;15.458;2024-02-23T12:06:29;95963.47;;;8.64;100.00
10470;BME280;5282;47.052;15.458;2024-02-23T12:08:58;95966.25;;;8.78;100.00
10470;BME280;5282;47.052;15.458;2024-02-23T12:11:25;95956.56;;;8.77;100.00
10470;BME280;5282;47.052;15.458;2024-02-23T12:13:55;95951.19;;;8.77;100.00
10470;BME280;5282;47.052;15.458;2024-02-23T12:16:22;95958.59;;;8.75;100.00
10470;BME280;5282;47.052;15.458;2024-02-23T12:18:53;95951.63;;;8.80;100.00
10470;BME280;5282;47.052;15.458;2024-02-23T12:21:20;95950.94;;;8.72;100.00
10470;BME280;5282;47.052;15.458;2024-02-23T12:23:49;95945.31;;;8.67;100.00
10470;BME280;5282;47.052;15.458;2024-02-23T12:26:17;95950.28;;;8.70;100.00
10470;BME280;5282;47.052;15.458;2024-02-23T12:28:44;95936.22;;;8.61;100.00
10470;BME280;5282;47.052;15.458;2024-02-23T12:31:13;95943.91;;;8.71;100.00
10470;BME280;5282;47.052;15.458;2024-02-23T12:33:40;95944.75;;;8.71;100.00
10470;BME280;5282;47.052;15.458;2024-02-23T12:36:13;95940.63;;;8.75;100.00
10470;BME280;5282;47.052;15.458;2024-02-23T12:38:40;95941.25;;;8.77;100.00
10470;BME280;5282;47.052;15.458;2024-02-23T12:41:07;95934.66;;;8.80;100.00
10470;BME280;5282;47.052;15.458;2024-02-23T12:43:34;95928.44;;;8.73;100.00
10470;BME280;5282;47.052;15.458;2024-02-23T12:46:01;95926.00;;;8.78;100.00
10470;BME280;5282;47.052;15.458;2024-02-23T12:48:30;95920.88;;;8.83;100.00
10470;BME280;5282;47.052;15.458;2024-02-23T12:50:57;95918.13;;;8.76;100.00
10470;BME280;5282;47.052;15.458;2024-02-23T12:53:32;95914.09;;;8.87;100.00
10470;BME280;5282;47.052;15.458;2024-02-23T12:56:00;95906.19;;;8.79;100.00
10470;BME280;5282;47.052;15.458;2024-02-23T12:58:28;95901.59;;;8.73;100.00
10470;BME280;5282;47.052;15.458;2024-02-23T13:00:55;95903.09;;;8.82;100.00
10470;BME280;5282;47.052;15.458;2024-02-23T13:03:23;95897.25;;;8.72;100.00